createdAt,value
2023-04-19T00:01:02.709Z,68.19
2023-04-19T00:02:05.403Z,68.14
2023-04-19T00:03:08.841Z,68.27
2023-04-19T00:04:11.417Z,68.32
2023-04-19T00:05:14.027Z,68.22
2023-04-19T00:06:17.583Z,68.22
2023-04-19T00:07:20.584Z,68.19
2023-04-19T00:08:22.846Z,68.23
2023-04-19T00:09:25.170Z,68.34
2023-04-19T00:10:27.486Z,68.35
2023-04-19T00:11:31.382Z,68.40
2023-04-19T00:12:33.747Z,68.52
2023-04-19T00:13:36.627Z,68.46
2023-04-19T00:14:38.979Z,68.39
2023-04-19T00:15:41.284Z,68.38
2023-04-19T00:16:43.608Z,68.37
2023-04-19T00:17:46.367Z,68.37
2023-04-19T00:18:48.751Z,68.37
2023-04-19T00:19:51.176Z,68.31
2023-04-19T00:20:53.468Z,68.22
2023-04-19T00:21:55.772Z,68.24
2023-04-19T00:22:59.429Z,68.20
2023-04-19T00:24:03.349Z,68.21
2023-04-19T00:25:06.202Z,68.09
2023-04-19T00:26:09.709Z,68.09
2023-04-19T00:27:12.692Z,68.14
2023-04-19T00:28:15.164Z,68.01
2023-04-19T00:29:18.523Z,67.91
2023-04-19T00:30:20.885Z,67.81
2023-04-19T00:31:23.274Z,67.76
2023-04-19T00:32:25.777Z,67.53
2023-04-19T00:33:28.058Z,67.60
2023-04-19T00:34:33.206Z,67.57
2023-04-19T00:35:35.724Z,67.43
2023-04-19T00:36:38.057Z,67.47
2023-04-19T00:37:42.453Z,67.41
2023-04-19T00:38:48.451Z,67.38
2023-04-19T00:39:50.763Z,67.21
2023-04-19T00:40:53.055Z,67.08
2023-04-19T00:41:57.477Z,67.03
2023-04-19T00:42:59.904Z,67.06
2023-04-19T00:44:02.216Z,66.96
2023-04-19T00:45:04.839Z,66.92
2023-04-19T00:46:07.125Z,66.92
2023-04-19T00:47:09.576Z,66.94
2023-04-19T00:48:14.343Z,66.84
2023-04-19T00:49:18.355Z,66.66
2023-04-19T00:50:20.713Z,66.80
2023-04-19T00:51:23.458Z,66.75
2023-04-19T00:52:26.126Z,66.71
2023-04-19T00:53:28.573Z,66.65
2023-04-19T00:54:31.662Z,66.63
2023-04-19T00:55:34.016Z,66.59
2023-04-19T00:56:36.434Z,66.61
2023-04-19T00:57:38.989Z,66.75
2023-04-19T00:58:41.457Z,66.62
2023-04-19T00:59:44.982Z,66.61
2023-04-19T01:00:47.238Z,66.69
2023-04-19T01:01:49.972Z,66.70
2023-04-19T01:02:52.707Z,66.74
2023-04-19T01:03:56.711Z,66.74
2023-04-19T01:05:00.960Z,66.73
2023-04-19T01:06:03.349Z,66.67
2023-04-19T01:07:06.021Z,66.81
2023-04-19T01:08:08.598Z,66.75
2023-04-19T01:09:10.965Z,66.72
2023-04-19T01:10:17.138Z,66.84
2023-04-19T01:11:19.399Z,66.78
2023-04-19T01:12:21.810Z,66.70
2023-04-19T01:13:24.102Z,66.65
2023-04-19T01:14:26.403Z,66.83
2023-04-19T01:15:29.012Z,66.85
2023-04-19T01:16:31.342Z,66.92
2023-04-19T01:17:34.604Z,66.89
2023-04-19T01:18:39.644Z,66.84
2023-04-19T01:19:42.533Z,66.86
2023-04-19T01:20:44.824Z,66.77
2023-04-19T01:21:47.223Z,66.86
2023-04-19T01:22:49.477Z,66.87
2023-04-19T01:23:52.517Z,66.72
2023-04-19T01:24:55.011Z,66.71
2023-04-19T01:25:57.990Z,66.71
2023-04-19T01:27:02.423Z,66.73
2023-04-19T01:28:06.458Z,66.60
2023-04-19T01:29:09.242Z,66.76
2023-04-19T01:30:12.448Z,66.76
2023-04-19T01:31:14.744Z,66.58
2023-04-19T01:32:18.579Z,66.41
2023-04-19T01:33:21.621Z,66.56
2023-04-19T01:34:23.994Z,66.26
2023-04-19T01:35:26.944Z,66.42
2023-04-19T01:36:29.264Z,66.33
2023-04-19T01:37:31.608Z,66.34
2023-04-19T01:38:35.213Z,66.25
2023-04-19T01:39:37.616Z,66.29
2023-04-19T01:40:39.964Z,66.19
2023-04-19T01:41:42.228Z,66.05
2023-04-19T01:42:45.261Z,66.20
2023-04-19T01:43:48.919Z,66.17
2023-04-19T01:44:51.160Z,66.14
2023-04-19T01:45:55.106Z,66.15
2023-04-19T01:46:57.436Z,65.97
2023-04-19T01:48:01.747Z,65.98
2023-04-19T01:49:04.525Z,66.19
2023-04-19T01:50:07.538Z,65.92
2023-04-19T01:51:11.260Z,65.79
2023-04-19T01:52:13.600Z,65.87
2023-04-19T01:53:16.221Z,65.83
2023-04-19T01:54:18.523Z,65.90
2023-04-19T01:55:22.137Z,65.81
2023-04-19T01:56:25.351Z,65.84
2023-04-19T01:57:27.578Z,65.82
2023-04-19T01:58:29.818Z,65.75
2023-04-19T01:59:32.159Z,65.81
2023-04-19T02:00:34.510Z,65.88
2023-04-19T02:01:39.908Z,65.78
2023-04-19T02:02:42.342Z,65.58
2023-04-19T02:03:45.219Z,65.66
2023-04-19T02:04:47.713Z,65.73
2023-04-19T02:05:49.930Z,65.79
2023-04-19T02:06:52.192Z,65.75
2023-04-19T02:07:54.562Z,65.75
2023-04-19T02:08:57.533Z,65.76
2023-04-19T02:10:00.489Z,65.65
2023-04-19T02:11:09.959Z,65.72
2023-04-19T02:12:12.237Z,65.70
2023-04-19T02:13:14.559Z,65.55
2023-04-19T02:14:17.414Z,65.76
2023-04-19T02:15:20.920Z,65.71
2023-04-19T02:16:23.928Z,65.70
2023-04-19T02:17:26.819Z,65.76
2023-04-19T02:18:29.960Z,65.66
2023-04-19T02:19:32.571Z,65.55
2023-04-19T02:20:34.832Z,65.54
2023-04-19T02:21:38.066Z,65.56
2023-04-19T02:22:40.477Z,65.42
2023-04-19T02:23:42.698Z,65.31
2023-04-19T02:24:47.925Z,65.37
2023-04-19T02:25:50.901Z,65.41
2023-04-19T02:26:53.221Z,65.25
2023-04-19T02:27:55.610Z,65.06
2023-04-19T02:28:57.886Z,65.17
2023-04-19T02:30:00.199Z,65.00
2023-04-19T02:31:06.552Z,65.06
2023-04-19T02:32:12.765Z,64.86
2023-04-19T02:33:15.631Z,64.95
2023-04-19T02:34:18.825Z,65.03
2023-04-19T02:35:21.281Z,64.90
2023-04-19T02:36:23.678Z,64.76
2023-04-19T02:37:27.408Z,64.92
2023-04-19T02:38:32.656Z,64.77
2023-04-19T02:39:34.949Z,64.81
2023-04-19T02:40:37.339Z,64.67
2023-04-19T02:41:39.764Z,64.60
2023-04-19T02:42:42.034Z,64.65
2023-04-19T02:43:44.697Z,64.76
2023-04-19T02:44:49.661Z,64.53
2023-04-19T02:45:52.178Z,64.51
2023-04-19T02:46:57.987Z,64.75
2023-04-19T02:48:00.322Z,64.62
2023-04-19T02:49:02.680Z,64.63
2023-04-19T02:50:06.331Z,64.68
2023-04-19T02:51:17.955Z,64.58
2023-04-19T02:52:20.739Z,64.54
2023-04-19T02:53:23.033Z,64.50
2023-04-19T02:54:25.902Z,64.78
2023-04-19T02:55:28.723Z,64.68
2023-04-19T02:56:40.661Z,64.59
2023-04-19T02:57:42.939Z,64.60
2023-04-19T02:58:48.300Z,64.55
2023-04-19T02:59:50.688Z,64.62
2023-04-19T03:00:53.287Z,64.73
2023-04-19T03:01:57.400Z,64.72
2023-04-19T03:03:02.884Z,64.63
2023-04-19T03:04:06.023Z,64.69
2023-04-19T03:05:09.029Z,64.81
2023-04-19T03:06:11.302Z,64.54
2023-04-19T03:07:14.010Z,64.58
2023-04-19T03:08:16.325Z,64.84
2023-04-19T03:09:19.887Z,64.77
2023-04-19T03:10:22.780Z,64.78
2023-04-19T03:11:25.177Z,64.75
2023-04-19T03:12:29.135Z,64.60
2023-04-19T03:13:31.372Z,64.71
2023-04-19T03:14:36.546Z,64.71
2023-04-19T03:15:39.559Z,64.62
2023-04-19T03:16:42.318Z,64.58
2023-04-19T03:17:45.349Z,64.63
2023-04-19T03:18:49.445Z,64.68
2023-04-19T03:19:55.389Z,64.62
2023-04-19T03:20:59.579Z,64.57
2023-04-19T03:22:05.319Z,64.59
2023-04-19T03:23:08.688Z,64.66
2023-04-19T03:24:11.260Z,64.63
2023-04-19T03:25:17.724Z,64.72
2023-04-19T03:26:24.601Z,64.73
2023-04-19T03:27:29.376Z,64.75
2023-04-19T03:28:35.844Z,64.65
2023-04-19T03:30:00.213Z,64.82
2023-04-19T03:31:04.437Z,64.74
2023-04-19T03:32:07.584Z,64.83
2023-04-19T03:33:09.908Z,64.77
2023-04-19T03:34:12.682Z,64.78
2023-04-19T03:35:18.562Z,64.74
2023-04-19T03:36:21.873Z,64.75
2023-04-19T03:37:24.472Z,64.65
2023-04-19T03:38:27.194Z,64.65
2023-04-19T03:39:30.091Z,64.69
2023-04-19T03:40:38.737Z,64.76
2023-04-19T03:41:42.998Z,64.67
2023-04-19T03:42:58.576Z,64.71
2023-04-19T03:44:05.053Z,64.77
2023-04-19T03:45:09.482Z,64.78
2023-04-19T03:46:16.324Z,64.74
2023-04-19T03:47:19.103Z,64.78
2023-04-19T03:48:24.426Z,64.66
2023-04-19T03:49:26.863Z,64.79
2023-04-19T03:50:39.328Z,64.69
2023-04-19T03:51:41.622Z,64.82
2023-04-19T03:52:43.905Z,64.67
2023-04-19T03:53:48.044Z,64.74
2023-04-19T03:54:53.344Z,64.74
2023-04-19T03:56:09.555Z,64.75
2023-04-19T03:57:15.425Z,64.75
2023-04-19T03:58:18.720Z,64.69
2023-04-19T03:59:42.582Z,64.83
2023-04-19T04:00:45.902Z,64.79
2023-04-19T04:01:49.485Z,64.89
2023-04-19T04:02:52.168Z,64.72
2023-04-19T04:03:54.983Z,64.79
2023-04-19T04:04:57.690Z,64.82
2023-04-19T04:06:00.404Z,64.79
2023-04-19T04:07:02.987Z,64.71
2023-04-19T04:08:05.502Z,64.65
2023-04-19T04:09:09.096Z,64.57
2023-04-19T04:10:12.619Z,64.55
2023-04-19T04:11:18.327Z,64.58
2023-04-19T04:12:23.616Z,64.38
2023-04-19T04:13:27.796Z,64.46
2023-04-19T04:14:42.642Z,64.47
2023-04-19T04:15:46.658Z,64.43
2023-04-19T04:16:50.669Z,64.38
2023-04-19T04:17:53.098Z,64.25
2023-04-19T04:18:57.806Z,64.18
2023-04-19T04:20:02.115Z,64.04
2023-04-19T04:21:06.678Z,63.92
2023-04-19T04:22:12.137Z,64.00
2023-04-19T04:23:17.403Z,64.09
2023-04-19T04:24:24.280Z,63.86
2023-04-19T04:25:39.458Z,63.99
2023-04-19T04:26:46.286Z,63.97
2023-04-19T04:27:58.162Z,64.04
2023-04-19T04:29:03.188Z,63.85
2023-04-19T04:30:07.265Z,63.84
2023-04-19T04:31:10.111Z,63.88
2023-04-19T04:32:14.528Z,63.99
2023-04-19T04:33:18.253Z,63.75
2023-04-19T04:34:20.699Z,63.77
2023-04-19T04:35:31.830Z,63.70
2023-04-19T04:36:44.546Z,63.74
2023-04-19T04:37:47.037Z,63.73
2023-04-19T04:38:49.975Z,63.66
2023-04-19T04:39:52.237Z,63.77
2023-04-19T04:40:55.953Z,63.71
2023-04-19T04:41:59.771Z,63.71
2023-04-19T04:43:04.683Z,63.84
2023-04-19T04:44:12.549Z,63.79
2023-04-19T04:45:18.655Z,63.65
2023-04-19T04:46:21.415Z,63.68
2023-04-19T04:47:24.387Z,63.71
2023-04-19T04:48:31.699Z,63.62
2023-04-19T04:49:33.916Z,63.60
2023-04-19T04:50:36.205Z,63.54
2023-04-19T04:51:38.587Z,63.58
2023-04-19T04:52:41.276Z,63.48
2023-04-19T04:53:47.599Z,63.58
2023-04-19T04:54:50.448Z,63.54
2023-04-19T04:56:02.092Z,63.46
2023-04-19T04:57:05.686Z,63.47
2023-04-19T04:58:08.120Z,63.46
2023-04-19T04:59:29.116Z,63.35
2023-04-19T05:00:32.570Z,63.32
2023-04-19T05:01:41.347Z,63.25
2023-04-19T05:02:45.042Z,63.28
2023-04-19T05:03:48.055Z,63.21
2023-04-19T05:04:54.020Z,63.17
2023-04-19T05:05:56.551Z,63.06
2023-04-19T05:06:59.806Z,63.06
2023-04-19T05:08:04.260Z,62.78
2023-04-19T05:09:08.294Z,62.75
2023-04-19T05:10:11.672Z,62.69
2023-04-19T05:11:21.127Z,62.55
2023-04-19T05:12:23.641Z,62.54
2023-04-19T05:13:26.277Z,62.49
2023-04-19T05:14:29.689Z,62.54
2023-04-19T05:15:32.102Z,62.51
2023-04-19T05:16:34.588Z,62.46
2023-04-19T05:17:36.958Z,62.28
2023-04-19T05:18:39.352Z,61.92
2023-04-19T05:19:41.629Z,61.77
2023-04-19T05:20:46.971Z,61.58
2023-04-19T05:21:55.139Z,61.46
2023-04-19T05:22:59.829Z,61.29
2023-04-19T05:24:02.060Z,61.22
2023-04-19T05:25:04.933Z,61.00
2023-04-19T05:26:07.540Z,60.80
2023-04-19T05:27:11.485Z,60.56
2023-04-19T05:28:15.045Z,60.37
2023-04-19T05:29:29.364Z,60.13
2023-04-19T05:30:32.034Z,60.19
2023-04-19T05:31:35.819Z,60.06
2023-04-19T05:32:46.551Z,59.70
2023-04-19T05:33:50.243Z,59.33
2023-04-19T05:34:52.565Z,58.98
2023-04-19T05:35:56.488Z,58.23
2023-04-19T05:36:58.920Z,57.79
2023-04-19T05:38:01.622Z,57.12
2023-04-19T05:39:04.307Z,56.44
2023-04-19T05:40:10.493Z,55.99
2023-04-19T05:41:12.754Z,55.95
2023-04-19T05:42:15.105Z,55.38
2023-04-19T05:43:17.432Z,55.13
2023-04-19T05:44:19.778Z,54.88
2023-04-19T05:45:22.849Z,54.52
2023-04-19T05:46:25.465Z,54.21
2023-04-19T05:47:27.867Z,53.95
2023-04-19T05:48:50.468Z,53.38
2023-04-19T05:50:11.320Z,53.36
2023-04-19T05:51:20.079Z,52.94
2023-04-19T05:52:31.212Z,52.72
2023-04-19T05:53:34.915Z,52.55
2023-04-19T05:54:37.746Z,52.34
2023-04-19T05:55:40.892Z,51.79
2023-04-19T05:56:44.438Z,51.70
2023-04-19T05:57:46.945Z,51.84
2023-04-19T05:58:49.628Z,51.89
2023-04-19T05:59:51.947Z,51.51
2023-04-19T06:01:00.201Z,50.96
2023-04-19T06:02:03.279Z,50.83
2023-04-19T06:03:06.324Z,50.80
2023-04-19T06:04:09.145Z,50.93
2023-04-19T06:05:12.006Z,50.93
2023-04-19T06:06:16.235Z,50.94
2023-04-19T06:07:30.951Z,51.18
2023-04-19T06:08:35.102Z,50.61
2023-04-19T06:09:37.415Z,50.04
2023-04-19T06:10:51.732Z,49.96
2023-04-19T06:12:01.306Z,49.78
2023-04-19T06:13:04.368Z,49.46
2023-04-19T06:14:07.341Z,49.48
2023-04-19T06:15:12.178Z,49.23
2023-04-19T06:16:16.286Z,49.05
2023-04-19T06:17:23.636Z,49.14
2023-04-19T06:18:26.094Z,48.84
2023-04-19T06:19:28.377Z,48.93
2023-04-19T06:20:30.626Z,48.74
2023-04-19T06:21:33.125Z,48.91
2023-04-19T06:22:36.673Z,48.86
2023-04-19T06:23:39.031Z,48.68
2023-04-19T06:24:42.018Z,48.71
2023-04-19T06:25:44.355Z,48.68
2023-04-19T06:26:47.840Z,48.65
2023-04-19T06:27:50.289Z,48.54
2023-04-19T06:28:52.662Z,48.76
2023-04-19T06:29:55.530Z,48.91
2023-04-19T06:30:57.811Z,48.68
2023-04-19T06:32:00.238Z,48.57
2023-04-19T06:33:02.880Z,48.28
2023-04-19T06:34:05.260Z,48.41
2023-04-19T06:35:08.109Z,48.60
2023-04-19T06:36:12.154Z,48.68
2023-04-19T06:37:14.798Z,48.69
2023-04-19T06:38:17.105Z,48.22
2023-04-19T06:39:19.435Z,48.21
2023-04-19T06:40:21.884Z,48.00
2023-04-19T06:41:24.118Z,48.01
2023-04-19T06:42:27.598Z,47.77
2023-04-19T06:43:30.169Z,47.36
2023-04-19T06:44:32.988Z,47.35
2023-04-19T06:45:35.402Z,47.16
2023-04-19T06:46:37.636Z,46.89
2023-04-19T06:47:39.936Z,47.28
2023-04-19T06:48:42.216Z,47.45
2023-04-19T06:49:44.493Z,47.74
2023-04-19T06:50:47.051Z,48.50
2023-04-19T06:51:49.723Z,48.43
2023-04-19T06:52:51.990Z,48.94
2023-04-19T06:53:54.300Z,49.04
2023-04-19T06:54:56.742Z,47.97
2023-04-19T06:56:01.562Z,47.58
2023-04-19T06:57:04.036Z,46.79
2023-04-19T06:58:10.671Z,46.46
2023-04-19T06:59:15.212Z,46.17
2023-04-19T07:00:17.926Z,46.16
2023-04-19T07:01:21.314Z,46.46
2023-04-19T07:02:23.732Z,45.70
2023-04-19T07:03:26.467Z,45.17
2023-04-19T07:04:29.047Z,45.37
2023-04-19T07:05:32.294Z,45.68
2023-04-19T07:06:36.348Z,45.05
2023-04-19T07:07:38.606Z,44.19
2023-04-19T07:08:49.801Z,43.52
2023-04-19T07:09:52.764Z,43.58
2023-04-19T07:10:56.812Z,43.60
2023-04-19T07:12:01.834Z,43.49
2023-04-19T07:13:04.171Z,43.70
2023-04-19T07:14:06.848Z,43.70
2023-04-19T07:15:09.727Z,43.75
2023-04-19T07:16:12.150Z,43.19
2023-04-19T07:17:15.702Z,42.83
2023-04-19T07:18:18.001Z,42.05
2023-04-19T07:19:21.175Z,41.59
2023-04-19T07:20:23.823Z,40.96
2023-04-19T07:21:28.923Z,40.49
2023-04-19T07:22:31.407Z,40.33
2023-04-19T07:23:33.779Z,40.29
2023-04-19T07:24:36.103Z,40.11
2023-04-19T07:25:38.349Z,40.36
2023-04-19T07:26:40.738Z,40.26
2023-04-19T07:27:42.967Z,40.22
2023-04-19T07:28:45.417Z,39.92
2023-04-19T07:29:47.755Z,39.42
2023-04-19T07:30:50.008Z,39.26
2023-04-19T07:31:55.522Z,38.36
2023-04-19T07:32:58.004Z,37.64
2023-04-19T07:34:00.365Z,37.80
2023-04-19T07:35:02.685Z,38.19
2023-04-19T07:36:06.729Z,38.05
2023-04-19T07:37:09.302Z,38.61
2023-04-19T07:38:11.691Z,37.99
2023-04-19T07:39:14.035Z,37.46
2023-04-19T07:40:16.348Z,37.55
2023-04-19T07:41:18.650Z,37.50
2023-04-19T07:42:21.402Z,37.83
2023-04-19T07:43:23.722Z,38.28
2023-04-19T07:44:26.033Z,38.32
2023-04-19T07:45:30.148Z,37.56
2023-04-19T07:46:32.464Z,37.36
2023-04-19T07:47:34.833Z,37.58
2023-04-19T07:48:38.293Z,36.84
2023-04-19T07:49:40.625Z,36.49
2023-04-19T07:50:42.977Z,36.38
2023-04-19T07:51:45.242Z,36.70
2023-04-19T07:52:47.934Z,36.79
2023-04-19T07:53:50.668Z,36.23
2023-04-19T07:54:53.331Z,35.68
2023-04-19T07:55:55.667Z,35.78
2023-04-19T07:57:00.670Z,35.38
2023-04-19T07:58:03.092Z,35.25
2023-04-19T07:59:08.887Z,35.30
2023-04-19T08:00:13.315Z,35.37
2023-04-19T08:01:18.903Z,35.64
2023-04-19T08:02:21.338Z,35.76
2023-04-19T08:03:24.881Z,35.40
2023-04-19T08:04:27.571Z,35.35
2023-04-19T08:05:31.486Z,34.49
2023-04-19T08:06:33.831Z,34.71
2023-04-19T08:07:36.794Z,34.88
2023-04-19T08:08:39.173Z,34.72
2023-04-19T08:09:41.666Z,34.69
2023-04-19T08:10:44.480Z,34.54
2023-04-19T08:11:46.959Z,34.31
2023-04-19T08:13:04.563Z,34.20
2023-04-19T08:14:18.561Z,34.09
2023-04-19T08:16:15.206Z,34.49
2023-04-19T08:17:56.898Z,34.14
2023-04-19T08:18:59.282Z,34.22
2023-04-19T08:20:01.622Z,34.49
2023-04-19T08:21:05.311Z,34.56
2023-04-19T08:22:07.619Z,34.43
2023-04-19T08:23:22.219Z,34.81
2023-04-19T08:24:27.100Z,34.44
2023-04-19T08:25:29.339Z,34.82
2023-04-19T08:26:31.631Z,34.16
2023-04-19T08:27:33.964Z,34.17
2023-04-19T08:28:36.283Z,34.21
2023-04-19T08:29:41.261Z,34.47
2023-04-19T08:30:43.558Z,34.89
2023-04-19T08:31:46.713Z,34.35
2023-04-19T08:32:49.089Z,34.06
2023-04-19T08:33:51.403Z,34.17
2023-04-19T08:34:53.717Z,34.43
2023-04-19T08:35:56.100Z,34.28
2023-04-19T08:37:03.982Z,33.73
2023-04-19T08:38:07.975Z,34.62
2023-04-19T08:39:18.026Z,34.51
2023-04-19T08:40:27.583Z,34.77
2023-04-19T08:41:31.078Z,34.72
2023-04-19T08:42:36.785Z,34.87
2023-04-19T08:43:43.673Z,35.18
2023-04-19T08:45:53.912Z,34.63
2023-04-19T08:46:58.851Z,34.54
2023-04-19T08:48:02.785Z,34.75
2023-04-19T08:49:06.250Z,34.79
2023-04-19T08:50:23.939Z,34.61
2023-04-19T08:51:27.601Z,34.37
2023-04-19T08:52:30.740Z,34.17
2023-04-19T08:53:37.910Z,34.09
2023-04-19T08:54:41.842Z,34.39
2023-04-19T08:55:59.194Z,34.46
2023-04-19T08:57:06.445Z,34.69
2023-04-19T08:58:18.992Z,34.66
2023-04-19T08:59:31.015Z,35.39
2023-04-19T09:00:34.211Z,35.02
2023-04-19T09:01:37.203Z,34.89
2023-04-19T09:02:50.823Z,35.07
2023-04-19T09:04:06.715Z,34.63
2023-04-19T09:05:14.989Z,35.08
2023-04-19T09:06:17.727Z,34.40
2023-04-19T09:07:27.135Z,34.74
2023-04-19T09:08:31.258Z,34.92
2023-04-19T09:09:39.150Z,34.46
2023-04-19T09:11:01.875Z,34.91
2023-04-19T09:12:15.213Z,33.73
2023-04-19T09:13:18.381Z,33.89
2023-04-19T09:14:22.402Z,33.61
2023-04-19T09:15:37.516Z,33.89
2023-04-19T09:16:42.478Z,34.00
2023-04-19T09:17:45.227Z,33.91
2023-04-19T09:19:05.387Z,33.78
2023-04-19T09:20:14.291Z,33.19
2023-04-19T09:21:28.423Z,33.35
2023-04-19T09:22:31.873Z,33.72
2023-04-19T09:23:34.189Z,33.64
2023-04-19T09:27:12.550Z,33.72
2023-04-19T09:28:16.474Z,33.88
2023-04-19T09:29:20.051Z,33.62
2023-04-19T09:30:32.458Z,33.62
2023-04-19T09:31:50.552Z,34.12
2023-04-19T09:32:54.108Z,34.33
2023-04-19T09:33:59.524Z,34.00
2023-04-19T09:35:02.887Z,33.92
2023-04-19T09:36:06.696Z,34.01
2023-04-19T09:37:21.279Z,34.04
2023-04-19T09:38:49.811Z,34.67
2023-04-19T09:39:53.668Z,34.12
2023-04-19T09:41:09.177Z,34.22
2023-04-19T09:42:11.601Z,33.28
2023-04-19T09:43:53.267Z,33.28
2023-04-19T09:46:06.013Z,33.65
2023-04-19T09:47:33.082Z,34.15
2023-04-19T09:48:37.459Z,33.46
2023-04-19T09:49:48.363Z,33.41
2023-04-19T09:51:00.878Z,33.31
2023-04-19T09:52:06.085Z,33.87
2023-04-19T09:53:09.018Z,33.97
2023-04-19T09:54:12.778Z,34.13
2023-04-19T09:55:27.113Z,33.74
2023-04-19T09:56:30.941Z,34.03
2023-04-19T09:57:34.591Z,34.04
2023-04-19T09:58:49.993Z,33.70
2023-04-19T09:59:55.028Z,33.91
2023-04-19T10:01:10.810Z,33.47
2023-04-19T10:02:18.013Z,33.65
2023-04-19T10:03:22.311Z,33.21
2023-04-19T10:04:38.477Z,33.78
2023-04-19T10:05:50.174Z,34.27
2023-04-19T10:07:24.548Z,34.40
2023-04-19T10:08:17.433Z,33.88
2023-04-19T10:09:21.493Z,33.20
2023-04-19T10:10:33.281Z,33.09
2023-04-19T10:11:54.446Z,33.45
2023-04-19T10:14:12.422Z,32.94
2023-04-19T10:15:15.180Z,33.18
2023-04-19T10:16:20.269Z,33.40
2023-04-19T10:17:23.821Z,33.66
2023-04-19T10:18:27.095Z,32.80
2023-04-19T10:19:30.761Z,33.08
2023-04-19T10:20:39.810Z,33.18
2023-04-19T10:21:43.422Z,33.52
2023-04-19T10:22:45.833Z,33.22
2023-04-19T10:23:49.760Z,33.47
2023-04-19T10:25:12.338Z,34.16
2023-04-19T10:26:14.602Z,33.15
2023-04-19T10:27:16.996Z,33.48
2023-04-19T10:28:19.280Z,33.00
2023-04-19T10:29:56.777Z,33.42
2023-04-19T10:31:03.866Z,33.02
2023-04-19T10:32:06.851Z,33.02
2023-04-19T10:33:09.276Z,33.13
2023-04-19T10:34:12.913Z,32.76
2023-04-19T10:35:21.567Z,32.78
2023-04-19T10:36:27.918Z,33.19
2023-04-19T10:37:31.993Z,33.26
2023-04-19T10:38:43.473Z,32.91
2023-04-19T10:39:45.969Z,33.06
2023-04-19T10:41:01.963Z,33.90
2023-04-19T10:42:04.205Z,33.25
2023-04-19T10:43:16.657Z,33.29
2023-04-19T10:44:18.900Z,33.42
2023-04-19T10:45:35.197Z,33.74
2023-04-19T10:46:42.426Z,33.38
2023-04-19T10:47:45.160Z,33.61
2023-04-19T10:48:55.485Z,33.52
2023-04-19T10:49:57.830Z,33.28
2023-04-19T10:51:17.167Z,33.15
2023-04-19T10:52:31.690Z,33.21
2023-04-19T10:54:03.956Z,33.41
2023-04-19T10:55:06.827Z,33.48
2023-04-19T10:56:09.123Z,32.95
2023-04-19T10:57:12.677Z,33.03
2023-04-19T10:58:16.422Z,33.29
2023-04-19T10:59:22.726Z,33.29
2023-04-19T11:00:27.087Z,33.12
2023-04-19T11:01:38.391Z,33.64
2023-04-19T11:02:40.858Z,33.02
2023-04-19T11:03:46.369Z,33.05
2023-04-19T11:04:48.817Z,33.44
2023-04-19T11:06:21.511Z,33.81
2023-04-19T11:07:25.289Z,33.45
2023-04-19T11:08:27.575Z,33.62
2023-04-19T11:09:38.415Z,34.32
2023-04-19T11:10:42.158Z,34.35
2023-04-19T11:11:44.784Z,34.10
2023-04-19T11:12:47.048Z,34.15
2023-04-19T11:13:51.912Z,34.53
2023-04-19T11:14:57.881Z,34.91
2023-04-19T11:16:00.346Z,34.55
2023-04-19T11:17:13.958Z,34.82
2023-04-19T11:18:19.815Z,34.75
2023-04-19T11:19:22.384Z,34.57
2023-04-19T11:20:24.962Z,34.65
2023-04-19T11:21:30.249Z,34.44
2023-04-19T11:22:38.775Z,34.35
2023-04-19T11:23:41.517Z,34.37
2023-04-19T11:24:48.329Z,34.62
2023-04-19T11:25:53.148Z,34.72
2023-04-19T11:26:57.129Z,34.45
2023-04-19T11:28:00.646Z,34.71
2023-04-19T11:29:03.371Z,34.47
2023-04-19T11:30:17.354Z,34.55
2023-04-19T11:31:20.380Z,34.50
2023-04-19T11:32:23.199Z,34.71
2023-04-19T11:33:26.087Z,34.25
2023-04-19T11:34:28.480Z,33.96
2023-04-19T11:35:31.622Z,34.11
2023-04-19T11:36:37.151Z,34.30
2023-04-19T11:37:40.772Z,34.44
2023-04-19T11:38:47.792Z,34.28
2023-04-19T11:39:51.991Z,34.31
2023-04-19T11:41:04.685Z,34.49
2023-04-19T11:42:19.060Z,34.72
2023-04-19T11:43:21.651Z,34.83
2023-04-19T11:44:23.994Z,35.15
2023-04-19T11:45:32.520Z,35.60
2023-04-19T11:46:37.129Z,36.05
2023-04-19T11:47:49.643Z,36.27
2023-04-19T11:48:53.650Z,36.51
2023-04-19T11:49:57.959Z,36.58
2023-04-19T11:51:01.058Z,36.57
2023-04-19T11:52:06.985Z,36.44
2023-04-19T11:53:15.953Z,36.35
2023-04-19T11:54:18.601Z,36.46
2023-04-19T11:55:21.544Z,35.97
2023-04-19T11:56:25.152Z,35.81
2023-04-19T11:57:31.207Z,36.10
2023-04-19T11:58:37.966Z,36.23
2023-04-19T12:00:00.190Z,36.19
2023-04-19T12:01:09.716Z,36.08
2023-04-19T12:02:13.036Z,36.42
2023-04-19T12:03:16.039Z,36.19
2023-04-19T12:04:20.260Z,36.39
2023-04-19T12:05:24.732Z,36.21
2023-04-19T12:06:29.951Z,36.43
2023-04-19T12:07:32.157Z,36.50
2023-04-19T12:08:55.876Z,36.72
2023-04-19T12:10:10.395Z,37.00
2023-04-19T12:11:13.931Z,36.75
2023-04-19T12:12:32.187Z,36.93
2023-04-19T12:13:37.766Z,36.81
2023-04-19T12:14:40.095Z,36.72
2023-04-19T12:15:44.141Z,36.77
2023-04-19T12:16:47.048Z,36.81
2023-04-19T12:18:02.551Z,36.68
2023-04-19T12:19:18.338Z,36.95
2023-04-19T12:20:35.394Z,37.15
2023-04-19T12:21:37.822Z,37.28
2023-04-19T12:22:40.051Z,37.41
2023-04-19T12:23:42.329Z,37.52
2023-04-19T12:24:44.800Z,37.69
2023-04-19T12:25:48.863Z,37.53
2023-04-19T12:26:57.821Z,37.97
2023-04-19T12:28:04.194Z,37.79
2023-04-19T12:29:06.404Z,37.98
2023-04-19T12:30:10.403Z,37.87
2023-04-19T12:31:15.321Z,37.60
2023-04-19T12:32:17.770Z,37.52
2023-04-19T12:33:21.690Z,37.79
2023-04-19T12:34:25.606Z,37.89
2023-04-19T12:35:28.675Z,37.98
2023-04-19T12:36:31.122Z,37.97
2023-04-19T12:37:33.491Z,37.85
2023-04-19T12:38:37.847Z,37.95
2023-04-19T12:39:40.298Z,37.92
2023-04-19T12:40:43.463Z,38.01
2023-04-19T12:41:49.042Z,37.94
2023-04-19T12:42:53.819Z,37.91
2023-04-19T12:43:56.115Z,37.78
2023-04-19T12:44:58.664Z,37.66
2023-04-19T12:46:01.730Z,37.59
2023-04-19T12:47:04.027Z,37.62
2023-04-19T12:48:07.451Z,37.64
2023-04-19T12:49:09.767Z,37.87
2023-04-19T12:50:13.779Z,37.92
2023-04-19T12:51:17.466Z,37.81
2023-04-19T12:52:20.029Z,37.83
2023-04-19T12:53:24.534Z,38.01
2023-04-19T12:54:26.772Z,38.06
2023-04-19T12:55:31.153Z,38.07
2023-04-19T12:56:33.817Z,38.13
2023-04-19T12:57:37.001Z,37.91
2023-04-19T12:58:39.526Z,37.83
2023-04-19T12:59:41.985Z,37.90
2023-04-19T13:00:44.860Z,37.50
2023-04-19T13:01:47.283Z,37.54
2023-04-19T13:02:51.292Z,37.52
2023-04-19T13:03:57.999Z,37.55
2023-04-19T13:05:02.913Z,37.68
2023-04-19T13:06:06.465Z,37.70
2023-04-19T13:07:08.758Z,37.98
2023-04-19T13:08:11.752Z,38.17
2023-04-19T13:09:14.984Z,37.99
2023-04-19T13:10:17.851Z,38.12
2023-04-19T13:11:23.533Z,37.88
2023-04-19T13:12:26.046Z,38.07
2023-04-19T13:13:29.599Z,38.08
2023-04-19T13:14:31.906Z,38.17
2023-04-19T13:15:34.311Z,38.19
2023-04-19T13:16:36.830Z,38.13
2023-04-19T13:17:40.793Z,38.23
2023-04-19T13:18:43.494Z,38.23
2023-04-19T13:19:45.857Z,38.41
2023-04-19T13:20:49.411Z,38.42
2023-04-19T13:21:51.987Z,38.28
2023-04-19T13:22:54.266Z,38.24
2023-04-19T13:24:00.817Z,38.17
2023-04-19T13:25:03.416Z,37.89
2023-04-19T13:26:06.490Z,38.20
2023-04-19T13:27:12.704Z,38.01
2023-04-19T13:28:15.085Z,37.88
2023-04-19T13:29:17.357Z,37.86
2023-04-19T13:30:19.723Z,37.93
2023-04-19T13:31:22.071Z,37.98
2023-04-19T13:32:24.551Z,38.02
2023-04-19T13:33:27.135Z,38.20
2023-04-19T13:34:29.731Z,38.23
2023-04-19T13:35:32.485Z,38.60
2023-04-19T13:36:35.168Z,38.81
2023-04-19T13:37:37.465Z,38.98
2023-04-19T13:38:39.789Z,39.22
2023-04-19T13:39:42.802Z,39.05
2023-04-19T13:40:45.449Z,38.72
2023-04-19T13:41:47.693Z,38.48
2023-04-19T13:42:50.010Z,38.69
2023-04-19T13:43:52.422Z,38.68
2023-04-19T13:44:55.015Z,38.96
2023-04-19T13:45:57.388Z,38.67
2023-04-19T13:47:00.637Z,38.60
2023-04-19T13:48:03.164Z,38.52
2023-04-19T13:49:05.627Z,38.35
2023-04-19T13:50:08.275Z,38.69
2023-04-19T13:51:11.066Z,38.59
2023-04-19T13:52:13.379Z,38.52
2023-04-19T13:53:16.867Z,38.53
2023-04-19T13:54:20.030Z,38.51
2023-04-19T13:55:22.506Z,38.50
2023-04-19T13:56:25.009Z,38.55
2023-04-19T13:57:27.438Z,38.47
2023-04-19T13:58:29.812Z,38.47
2023-04-19T13:59:32.088Z,38.51
2023-04-19T14:00:34.418Z,38.73
2023-04-19T14:01:38.831Z,38.73
2023-04-19T14:02:45.324Z,38.62